createdAt,value
2023-04-29T00:00:55.322Z,58.12
2023-04-29T00:06:18.411Z,58.32
2023-04-29T00:11:40.290Z,58.32
2023-04-29T00:17:04.830Z,58.45
2023-04-29T00:22:26.282Z,58.19
2023-04-29T00:27:48.285Z,58.17
2023-04-29T00:33:10.367Z,58.37
2023-04-29T00:38:32.290Z,58.47
2023-04-29T00:43:54.349Z,58.36
2023-04-29T00:49:16.269Z,58.33
2023-04-29T00:54:38.309Z,58.56
2023-04-29T01:00:00.367Z,58.40
2023-04-29T01:05:22.287Z,58.14
2023-04-29T01:10:55.294Z,58.73
2023-04-29T01:16:30.451Z,58.75
2023-04-29T01:22:00.284Z,58.68
2023-04-29T01:27:46.286Z,59.07
2023-04-29T01:33:25.297Z,58.80
2023-04-29T01:39:12.569Z,59.35
2023-04-29T01:44:42.312Z,59.42
2023-04-29T01:50:09.260Z,59.36
2023-04-29T01:55:31.257Z,59.29
2023-04-29T02:01:02.340Z,59.38
2023-04-29T02:06:27.270Z,59.55
2023-04-29T02:11:52.268Z,59.76
2023-04-29T02:17:16.559Z,59.54
2023-04-29T02:22:38.260Z,59.38
2023-04-29T02:28:00.261Z,59.34
2023-04-29T02:33:22.281Z,59.29
2023-04-29T02:38:46.266Z,59.60
2023-04-29T02:44:10.296Z,59.57
2023-04-29T02:49:32.249Z,59.62
2023-04-29T02:54:54.271Z,59.56
2023-04-29T03:00:16.327Z,59.21
2023-04-29T03:05:38.271Z,59.46
2023-04-29T03:11:00.269Z,59.59
2023-04-29T03:16:23.291Z,59.38
2023-04-29T03:21:45.272Z,59.50
2023-04-29T03:27:07.322Z,59.25
2023-04-29T03:32:29.296Z,59.49
2023-04-29T03:37:51.243Z,59.69
2023-04-29T03:43:19.250Z,59.87
2023-04-29T03:48:43.289Z,59.17
2023-04-29T03:54:07.243Z,59.71
2023-04-29T03:59:29.251Z,60.03
2023-04-29T04:04:51.406Z,59.80
2023-04-29T04:10:13.255Z,59.94
2023-04-29T04:15:35.290Z,60.07
2023-04-29T04:20:57.230Z,59.89
2023-04-29T04:26:19.258Z,59.78
2023-04-29T04:31:59.255Z,59.83
2023-04-29T04:37:22.249Z,59.68
2023-04-29T04:42:49.284Z,59.55
2023-04-29T04:48:18.244Z,59.70
2023-04-29T04:53:41.279Z,59.66
2023-04-29T04:59:08.231Z,59.65
2023-04-29T05:04:31.306Z,59.67
2023-04-29T05:09:55.219Z,59.45
2023-04-29T05:15:21.230Z,59.58
2023-04-29T05:20:46.230Z,59.73
2023-04-29T05:26:08.240Z,59.73
2023-04-29T05:31:30.419Z,59.84
2023-04-29T05:36:57.245Z,59.77
2023-04-29T05:42:24.469Z,59.91
2023-04-29T05:47:46.367Z,59.76
2023-04-29T05:53:08.220Z,60.27
2023-04-29T05:58:32.232Z,59.96
2023-04-29T06:03:57.305Z,60.38
2023-04-29T06:09:29.231Z,60.16
2023-04-29T06:14:53.215Z,60.15
2023-04-29T06:20:17.670Z,60.25
2023-04-29T06:25:41.278Z,60.28
2023-04-29T06:31:03.205Z,60.38
2023-04-29T06:36:25.201Z,60.33
2023-04-29T06:42:02.553Z,60.20
2023-04-29T06:47:43.255Z,60.02
2023-04-29T06:53:17.224Z,59.88
2023-04-29T06:58:39.234Z,59.55
2023-04-29T07:04:01.314Z,59.02
2023-04-29T07:09:23.205Z,59.00
2023-04-29T07:14:45.213Z,58.78
2023-04-29T07:27:34.238Z,58.05
2023-04-29T07:33:03.261Z,58.21
2023-04-29T07:38:25.514Z,57.86
2023-04-29T07:43:47.327Z,57.44
2023-04-29T07:49:09.292Z,57.44
2023-04-29T07:54:31.256Z,57.89
2023-04-29T07:59:53.329Z,57.31
2023-04-29T08:05:16.650Z,57.52
2023-04-29T08:10:38.306Z,56.62
2023-04-29T08:22:07.216Z,56.23
2023-04-29T08:27:32.230Z,56.15
2023-04-29T08:32:55.257Z,55.38
2023-04-29T08:38:17.192Z,55.24
2023-04-29T08:43:40.198Z,55.28
2023-04-29T08:49:04.486Z,54.97
2023-04-29T08:54:26.227Z,54.92
2023-04-29T08:59:48.204Z,54.48
2023-04-29T09:05:23.201Z,54.39
2023-04-29T09:10:49.462Z,54.53
2023-04-29T09:16:12.520Z,54.59
2023-04-29T09:21:35.202Z,54.32
2023-04-29T09:26:57.185Z,53.70
2023-04-29T09:32:27.242Z,53.85
2023-04-29T09:37:49.199Z,53.72
2023-04-29T09:43:20.174Z,53.81
2023-04-29T09:48:45.192Z,53.29
2023-04-29T09:54:09.209Z,52.83
2023-04-29T09:59:32.165Z,52.89
2023-04-29T10:05:00.262Z,53.05
2023-04-29T10:10:23.170Z,52.76
2023-04-29T10:15:56.203Z,52.85
2023-04-29T10:21:21.175Z,53.17
2023-04-29T10:26:45.183Z,53.13
2023-04-29T10:32:09.176Z,53.32
2023-04-29T10:37:31.164Z,53.49
2023-04-29T10:42:56.173Z,53.39
2023-04-29T10:48:20.165Z,53.04
2023-04-29T10:59:54.581Z,52.73
2023-04-29T11:05:12.805Z,52.38
2023-04-29T11:10:17.838Z,52.11
2023-04-29T11:15:21.902Z,52.21
2023-04-29T11:20:27.385Z,51.75
2023-04-29T11:25:29.172Z,51.42
2023-04-29T11:30:31.757Z,51.15
2023-04-29T11:35:41.750Z,51.17
2023-04-29T11:41:03.977Z,51.12
2023-04-29T11:46:15.063Z,50.90
2023-04-29T11:51:22.660Z,50.94
2023-04-29T11:56:26.506Z,50.80
2023-04-29T12:01:28.639Z,50.97
2023-04-29T12:06:32.345Z,50.96
2023-04-29T12:11:41.597Z,50.51
2023-04-29T12:16:46.730Z,50.71
2023-04-29T12:21:49.688Z,50.25
2023-04-29T12:26:58.729Z,50.45
2023-04-29T12:32:00.739Z,50.18
2023-04-29T12:37:33.385Z,50.33
2023-04-29T12:42:42.484Z,50.08
2023-04-29T12:47:44.810Z,49.76
2023-04-29T12:52:46.960Z,49.54
2023-04-29T12:57:48.735Z,49.00
2023-04-29T13:03:04.591Z,49.23
2023-04-29T13:08:07.298Z,49.19
2023-04-29T13:13:10.076Z,48.63
2023-04-29T13:18:11.682Z,48.53
2023-04-29T13:23:13.343Z,48.52
2023-04-29T13:28:15.090Z,48.39
2023-04-29T13:33:17.174Z,48.05
2023-04-29T13:38:23.557Z,47.84
2023-04-29T13:43:36.639Z,48.13
2023-04-29T14:04:23.987Z,47.66
2023-04-29T14:09:34.515Z,47.88
2023-04-29T14:14:38.108Z,47.59
2023-04-29T14:19:40.096Z,47.49
2023-04-29T14:24:45.440Z,47.56
2023-04-29T14:29:49.899Z,47.52
2023-04-29T14:34:53.649Z,47.70
2023-04-29T14:39:56.658Z,47.68
2023-04-29T14:44:58.663Z,47.26
2023-04-29T14:50:02.453Z,46.79
2023-04-29T14:55:04.903Z,46.99
2023-04-29T15:00:10.510Z,46.83
2023-04-29T15:05:20.071Z,46.45
2023-04-29T15:10:23.635Z,46.74
2023-04-29T15:15:25.623Z,46.80
2023-04-29T15:20:27.760Z,46.56
2023-04-29T15:25:36.016Z,46.44
2023-04-29T15:30:40.924Z,46.71
2023-04-29T15:35:42.628Z,46.62
2023-04-29T15:40:44.212Z,46.51
2023-04-29T15:45:49.926Z,46.48
2023-04-29T15:50:53.706Z,46.30
2023-04-29T15:55:56.179Z,46.33
2023-04-29T16:00:57.993Z,46.32
2023-04-29T16:05:59.856Z,46.28
2023-04-29T16:11:04.153Z,46.31
2023-04-29T16:16:10.055Z,46.12
2023-04-29T16:21:14.991Z,46.20
2023-04-29T16:26:17.681Z,46.39
2023-04-29T16:31:20.234Z,46.07
2023-04-29T16:36:22.858Z,46.07
2023-04-29T16:41:30.032Z,46.02
2023-04-29T16:46:32.725Z,45.90
2023-04-29T16:51:34.702Z,45.98
2023-04-29T16:56:38.001Z,45.98
2023-04-29T17:01:41.309Z,46.19
2023-04-29T17:06:44.137Z,46.40
2023-04-29T17:11:45.853Z,46.32
2023-04-29T17:16:47.487Z,46.15
2023-04-29T17:21:49.625Z,45.93
2023-04-29T17:26:51.871Z,46.05
2023-04-29T17:32:00.046Z,46.22
2023-04-29T17:37:06.077Z,46.11
2023-04-29T17:42:08.972Z,46.31
2023-04-29T17:47:14.220Z,46.28
2023-04-29T17:52:21.112Z,46.45
2023-04-29T17:57:22.936Z,46.30
2023-04-29T18:02:27.043Z,46.53
2023-04-29T18:07:32.624Z,46.53
2023-04-29T18:12:37.870Z,46.63
2023-04-29T18:17:44.348Z,46.33
2023-04-29T18:22:47.335Z,46.19
2023-04-29T18:27:54.434Z,46.35
2023-04-29T18:33:07.700Z,46.54
2023-04-29T18:38:15.625Z,46.51
2023-04-29T18:43:25.340Z,46.56
2023-04-29T18:48:32.291Z,46.45
2023-04-29T18:53:38.940Z,46.88
2023-04-29T18:58:45.240Z,47.13
2023-04-29T19:03:53.189Z,47.30
2023-04-29T19:08:57.276Z,47.38
2023-04-29T19:14:03.148Z,47.60
2023-04-29T19:19:07.699Z,47.77
2023-04-29T19:24:12.567Z,47.79
2023-04-29T19:29:16.475Z,47.62
2023-04-29T19:34:19.106Z,47.79
2023-04-29T19:39:24.644Z,48.14
2023-04-29T19:44:28.556Z,47.99
2023-04-29T19:49:32.853Z,48.00
2023-04-29T19:54:35.819Z,48.06
2023-04-29T19:59:37.573Z,48.13
2023-04-29T20:04:43.209Z,48.20
2023-04-29T20:09:46.240Z,48.16
2023-04-29T20:14:48.233Z,48.15
2023-04-29T20:19:50.101Z,48.06
2023-04-29T20:24:54.784Z,48.36
2023-04-29T20:29:59.425Z,48.29
2023-04-29T20:35:04.315Z,48.24
2023-04-29T20:40:10.314Z,48.39
2023-04-29T20:45:16.889Z,48.56
2023-04-29T20:50:20.798Z,48.99
2023-04-29T20:55:22.729Z,48.92
2023-04-29T21:00:27.272Z,48.93
2023-04-29T21:05:30.694Z,48.86
2023-04-29T21:10:36.891Z,48.79
2023-04-29T21:15:40.667Z,48.98
2023-04-29T21:20:42.697Z,49.11
2023-04-29T21:25:44.460Z,48.97
2023-04-29T21:30:46.213Z,48.90
2023-04-29T21:35:51.307Z,48.92
2023-04-29T21:40:53.038Z,49.17
2023-04-29T21:45:55.156Z,49.15
2023-04-29T21:50:57.520Z,49.42
2023-04-29T21:55:59.134Z,49.14
2023-04-29T22:01:03.478Z,48.99
2023-04-29T22:06:05.680Z,49.14
2023-04-29T22:11:07.477Z,49.08
2023-04-29T22:16:09.089Z,49.10
2023-04-29T22:21:11.048Z,48.88
2023-04-29T22:26:12.753Z,48.73
2023-04-29T22:31:14.472Z,48.64
2023-04-29T22:36:16.418Z,48.91
2023-04-29T22:41:19.740Z,48.78
2023-04-29T22:46:21.521Z,48.78
2023-04-29T22:51:23.159Z,48.92
2023-04-29T22:56:24.873Z,48.80
2023-04-29T23:01:26.546Z,49.18
2023-04-29T23:06:28.331Z,49.07
2023-04-29T23:11:31.213Z,49.49
2023-04-29T23:16:34.661Z,49.25
2023-04-29T23:21:37.058Z,49.23
2023-04-29T23:26:38.887Z,49.18
2023-04-29T23:31:40.517Z,49.35
2023-04-29T23:36:42.195Z,49.61
2023-04-29T23:41:52.448Z,49.40
2023-04-29T23:46:57.384Z,49.55
2023-04-29T23:51:58.992Z,49.67
2023-04-29T23:57:00.589Z,49.70
